Time;durP1;ratioP1;P1;durP2;ratioP2;P2;SDS_P1;SDS_P2;PMS_P1;PMS_P2;Temp;Humidity;BMP_temperature;BMP_pressure;BME280_temperature;BME280_humidity;BME280_pressure;Samples;Min_cycle;Max_cycle;Signal;HPM_P1;HPM_P2
2021/03/29 02:47:01;;;;;;;5.22;4.72;;;7.10;85.40;;;;;;5148398;23;89897;-89
2021/03/29 02:49:28;;;;;;;5.78;4.80;;;7.10;87.30;;;;;;4845011;29;86730;-89
2021/03/29 02:51:58;;;;;;;5.88;4.80;;;7.00;88.30;;;;;;4830113;29;87060;-89
2021/03/29 02:54:24;;;;;;;6.10;5.32;;;6.90;89.30;;;;;;4845489;29;87646;-90
2021/03/29 02:56:52;;;;;;;6.30;4.60;;;6.90;90.70;;;;;;4846929;29;87164;-91
2021/03/29 02:59:21;;;;;;;8.23;5.43;;;6.80;91.00;;;;;;4825789;29;86957;-90
2021/03/29 03:01:47;;;;;;;5.38;4.47;;;6.70;91.70;;;;;;4858225;29;87050;-90
2021/03/29 03:04:15;;;;;;;5.68;4.55;;;6.60;92.50;;;;;;4852919;29;86044;-89
2021/03/29 03:06:44;;;;;;;6.85;5.53;;;6.60;92.90;;;;;;4846734;29;87006;-90
2021/03/29 03:09:12;;;;;;;8.00;5.60;;;;;;;;;;4833307;29;86889;-90
2021/03/29 03:11:38;;;;;;;5.97;5.03;;;6.40;93.00;;;;;;4836658;29;87168;-91
2021/03/29 03:14:06;;;;;;;4.95;3.90;;;6.30;90.30;;;;;;4875524;29;87067;-91
2021/03/29 03:16:33;;;;;;;6.60;4.65;;;;;;;;;;4876276;28;87352;-90
2021/03/29 03:18:59;;;;;;;5.75;4.28;;;;;;;;;;4875705;28;86317;-91
2021/03/29 03:28:23;;;;;;;5.50;3.63;;;6.20;90.00;;;;;;4872814;29;86216;-89
2021/03/29 03:30:52;;;;;;;3.92;3.58;;;6.10;88.20;;;;;;4847167;29;86065;-87
2021/03/29 03:33:20;;;;;;;3.33;3.03;;;6.10;85.70;;;;;;4853046;29;86976;-87
2021/03/29 03:35:47;;;;;;;8.13;3.42;;;6.10;84.60;;;;;;4853727;29;87702;-87
2021/03/29 03:38:30;;;;;;;4.82;3.85;;;6.10;84.60;;;;;;4855881;29;87785;-87
2021/03/29 03:40:59;;;;;;;4.65;4.25;;;6.00;86.10;;;;;;4834439;29;86953;-88
2021/03/29 03:43:32;;;;;;;5.05;3.78;;;6.00;85.80;;;;;;4879705;29;86550;-90
2021/03/29 03:46:04;;;;;;;3.80;3.50;;;5.90;83.70;;;;;;4868073;29;87690;-92
2021/03/29 03:48:32;;;;;;;4.20;3.80;;;5.90;84.30;;;;;;4868035;29;87502;-90
2021/03/29 03:50:58;;;;;;;5.07;4.25;;;5.80;89.10;;;;;;4869241;29;86224;-92
2021/03/29 03:53:27;;;;;;;5.60;4.50;;;5.80;90.20;;;;;;4855972;29;86326;-89
2021/03/29 03:55:57;;;;;;;6.50;4.75;;;5.70;93.60;;;;;;4868774;29;86390;-89
2021/03/29 03:58:24;;;;;;;5.47;4.97;;;5.70;93.90;;;;;;4869575;29;86825;-87
2021/03/29 04:00:51;;;;;;;6.50;5.05;;;5.70;94.70;;;;;;4873310;29;86081;-88
2021/03/29 04:03:17;;;;;;;5.32;4.82;;;;;;;;;;4865907;29;87258;-88
2021/03/29 04:05:43;;;;;;;5.32;4.60;;;;;;;;;;4844066;29;88528;-88
2021/03/29 04:08:10;;;;;;;7.82;5.43;;;;;;;;;;4846887;29;87404;-88
2021/03/29 04:10:43;;;;;;;7.80;4.90;;;;;;;;;;4835894;29;86171;-88
2021/03/29 04:13:13;;;;;;;8.55;5.43;;;5.40;97.00;;;;;;4852934;29;86843;-89
2021/03/29 04:15:40;;;;;;;9.13;5.90;;;;;;;;;;4853012;29;87152;-88
2021/03/29 04:18:06;;;;;;;7.22;5.07;;;;;;;;;;4852823;29;87886;-88
2021/03/29 04:20:42;;;;;;;6.03;5.43;;;5.30;96.10;;;;;;4852006;29;85364;-88
2021/03/29 04:23:08;;;;;;;6.75;5.10;;;;;;;;;;4862703;28;87056;-89
2021/03/29 04:25:34;;;;;;;7.90;5.28;;;;;;;;;;4874948;28;87633;-88
2021/03/29 04:28:01;;;;;;;8.98;4.60;;;;;;;;;;4874814;28;87514;-91
2021/03/29 04:30:27;;;;;;;10.43;5.20;;;;;;;;;;4874735;28;86053;-88
2021/03/29 04:32:54;;;;;;;5.38;4.63;;;5.20;96.10;;;;;;4852997;29;87046;-88
2021/03/29 04:35:22;;;;;;;5.65;5.00;;;5.10;95.60;;;;;;4852976;29;87708;-88
2021/03/29 04:37:50;;;;;;;5.93;4.38;;;5.10;95.20;;;;;;4853951;29;87090;-88
2021/03/29 04:40:17;;;;;;;6.15;4.43;;;5.10;95.40;;;;;;4857949;29;86245;-87
2021/03/29 04:42:44;;;;;;;6.82;5.15;;;;;;;;;;4852608;29;86974;-87
2021/03/29 04:45:11;;;;;;;5.45;4.70;;;5.10;95.60;;;;;;4852329;29;86504;-87
2021/03/29 04:47:37;;;;;;;5.20;4.75;;;;;;;;;;4851433;29;86729;-87
2021/03/29 04:50:04;;;;;;;5.40;4.90;;;5.10;95.50;;;;;;4851948;29;86800;-87
2021/03/29 04:52:30;;;;;;;4.97;4.50;;;;;;;;;;4851255;29;87987;-87
2021/03/29 04:54:57;;;;;;;5.88;4.53;;;;;;;;;;4851695;29;88069;-87
2021/03/29 04:57:22;;;;;;;7.60;3.92;;;5.10;93.00;;;;;;4839149;29;86727;-89
2021/03/29 04:59:48;;;;;;;4.68;4.20;;;;;;;;;;4834821;29;86660;-88
2021/03/29 05:02:14;;;;;;;5.95;3.88;;;;;;;;;;4853088;29;86922;-88
2021/03/29 05:04:40;;;;;;;7.60;5.05;;;5.10;95.10;;;;;;4853440;29;87497;-90
2021/03/29 05:07:17;;;;;;;7.57;5.75;;;5.10;96.60;;;;;;4830496;29;90197;-88
2021/03/29 05:09:43;;;;;;;8.77;5.28;;;;;;;;;;4836889;29;86210;-88
2021/03/29 05:12:17;;;;;;;9.40;5.00;;;5.00;97.60;;;;;;4853602;29;86835;-89
2021/03/29 05:14:43;;;;;;;7.03;5.40;;;;;;;;;;4836561;29;90747;-89
2021/03/29 05:17:10;;;;;;;6.30;4.80;;;5.10;98.60;;;;;;4832547;29;90545;-89
2021/03/29 05:19:36;;;;;;;5.00;4.45;;;5.00;98.80;;;;;;4818413;29;86989;-88
2021/03/29 05:22:04;;;;;;;8.07;5.30;;;5.10;98.80;;;;;;4850979;29;86925;-90
2021/03/29 05:24:33;;;;;;;5.20;4.70;;;5.00;99.90;;;;;;4836101;29;91060;-90
2021/03/29 05:26:59;;;;;;;7.72;5.20;;;5.00;99.90;;;;;;4853709;29;87513;-88
2021/03/29 05:29:41;;;;;;;6.68;4.95;;;;;;;;;;4836399;29;87056;-87
2021/03/29 05:32:21;;;;;;;5.15;4.55;;;5.10;99.90;;;;;;4853034;29;86992;-88
2021/03/29 05:34:50;;;;;;;5.22;4.22;;;5.20;99.90;;;;;;4853825;29;87504;-88
2021/03/29 05:37:17;;;;;;;5.68;4.93;;;5.20;99.90;;;;;;4835938;29;90267;-88
2021/03/29 05:39:47;;;;;;;7.72;5.45;;;5.20;99.90;;;;;;4848484;29;86709;-88
2021/03/29 05:42:13;;;;;;;6.35;4.57;;;5.20;99.90;;;;;;4853864;29;87807;-89
2021/03/29 05:44:41;;;;;;;8.43;5.35;;;5.30;99.90;;;;;;4863904;29;88099;-89
2021/03/29 05:47:07;;;;;;;8.80;5.93;;;5.40;99.90;;;;;;4836002;29;86976;-88
2021/03/29 05:49:34;;;;;;;7.95;6.18;;;5.40;99.90;;;;;;4844637;29;86217;-89
2021/03/29 05:52:01;;;;;;;9.25;6.05;;;5.50;99.90;;;;;;4871437;28;86360;-87
2021/03/29 05:54:45;;;;;;;9.57;6.25;;;5.60;99.90;;;;;;4856125;28;87910;-88
2021/03/29 05:57:11;;;;;;;12.40;6.57;;;5.70;99.90;;;;;;4864518;28;87581;-90
2021/03/29 05:59:41;;;;;;;7.70;6.05;;;5.80;99.90;;;;;;4862375;29;86296;-88
2021/03/29 06:02:11;;;;;;;9.15;6.20;;;5.90;99.90;;;;;;4870131;29;86350;-88
2021/03/29 06:04:51;;;;;;;9.60;6.03;;;5.90;99.90;;;;;;4873449;28;89255;-88
2021/03/29 06:07:26;;;;;;;7.25;5.25;;;6.40;99.90;;;;;;4856015;29;90067;-88
2021/03/29 06:13:45;;;;;;;12.05;6.57;;;7.20;99.90;;;;;;4850857;29;86074;-87
2021/03/29 06:16:13;;;;;;;9.10;5.78;;;7.80;98.10;;;;;;4861249;29;87069;-91
2021/03/29 06:18:50;;;;;;;6.80;5.82;;;8.10;97.40;;;;;;4836657;29;87540;-91
2021/03/29 06:21:16;;;;;;;6.45;5.78;;;8.10;96.90;;;;;;4842627;29;86186;-87
2021/03/29 06:23:57;;;;;;;8.10;6.07;;;8.20;96.90;;;;;;4848611;29;86411;-86
2021/03/29 06:26:30;;;;;;;9.80;5.97;;;8.20;97.30;;;;;;4857744;29;86969;-87
2021/03/29 06:28:57;;;;;;;7.35;5.50;;;8.40;97.60;;;;;;4857880;29;86783;-87
2021/03/29 06:31:28;;;;;;;7.13;6.05;;;9.80;96.20;;;;;;4841100;29;86857;-86
2021/03/29 06:33:54;;;;;;;7.45;5.18;;;9.80;96.30;;;;;;4855670;29;87714;-87
2021/03/29 06:36:28;;;;;;;6.10;5.35;;;11.20;93.90;;;;;;4856976;29;87743;-87
2021/03/29 06:39:13;;;;;;;6.72;5.90;;;12.90;89.30;;;;;;4837724;29;87141;-87
2021/03/29 06:41:39;;;;;;;11.90;6.25;;;14.30;79.00;;;;;;4825031;29;86932;-87
2021/03/29 06:44:06;;;;;;;7.57;5.65;;;15.40;72.80;;;;;;4842629;29;86904;-87
2021/03/29 06:46:32;;;;;;;8.18;6.57;;;16.50;68.20;;;;;;4834560;29;90348;-87
2021/03/29 06:48:59;;;;;;;6.80;5.97;;;17.40;63.60;;;;;;4852629;29;87041;-87
2021/03/29 06:51:28;;;;;;;8.13;5.80;;;18.40;59.70;;;;;;4852634;29;86216;-88
2021/03/29 06:54:06;;;;;;;8.00;5.60;;;19.20;56.50;;;;;;4833568;29;86639;-87
2021/03/29 06:56:39;;;;;;;5.65;5.15;;;19.80;53.00;;;;;;4849552;29;87302;-87
2021/03/29 06:59:04;;;;;;;6.60;5.80;;;20.30;51.40;;;;;;4848546;29;87837;-87
2021/03/29 07:01:32;;;;;;;8.57;6.13;;;21.10;49.40;;;;;;4849627;29;86853;-88
2021/03/29 07:03:59;;;;;;;8.07;5.40;;;21.20;47.80;;;;;;4831500;29;87052;-88
2021/03/29 07:06:29;;;;;;;6.38;5.47;;;21.60;47.00;;;;;;4835314;29;87358;-88
2021/03/29 07:09:17;;;;;;;6.30;5.45;;;22.20;45.80;;;;;;4831897;29;90623;-88
2021/03/29 07:11:45;;;;;;;7.07;6.25;;;22.90;44.40;;;;;;4842487;29;86871;-88
2021/03/29 07:14:11;;;;;;;6.30;5.70;;;23.60;43.20;;;;;;4824872;29;87089;-88
2021/03/29 07:16:44;;;;;;;5.90;5.40;;;24.30;42.40;;;;;;4838217;29;88997;-88
2021/03/29 07:19:10;;;;;;;6.40;5.75;;;24.90;40.80;;;;;;4848230;29;86925;-88
2021/03/29 07:21:36;;;;;;;6.20;5.70;;;25.30;38.70;;;;;;4848804;29;87008;-88
2021/03/29 07:24:05;;;;;;;6.70;5.65;;;25.60;38.90;;;;;;4830967;29;88024;-88
2021/03/29 07:26:43;;;;;;;5.70;5.20;;;26.00;37.70;;;;;;4846512;29;87260;-87
2021/03/29 07:29:20;;;;;;;6.35;5.75;;;26.70;36.50;;;;;;4847631;29;86943;-89
2021/03/29 07:31:51;;;;;;;6.05;5.45;;;27.50;35.70;;;;;;4848524;29;87519;-87
2021/03/29 07:34:17;;;;;;;6.75;5.35;;;28.00;35.70;;;;;;4848070;29;86840;-88
2021/03/29 07:36:49;;;;;;;6.03;5.40;;;28.60;35.00;;;;;;4848140;29;88633;-88
2021/03/29 07:39:40;;;;;;;7.03;5.35;;;28.90;33.90;;;;;;4832098;29;90585;-88
2021/03/29 07:42:32;;;;;;;5.55;5.05;;;29.80;31.70;;;;;;4848826;29;86140;-88
2021/03/29 07:45:01;;;;;;;5.38;4.97;;;30.50;30.70;;;;;;4848076;29;87017;-88
2021/03/29 07:47:53;;;;;;;5.57;5.15;;;31.00;31.40;;;;;;4830218;29;89745;-88
2021/03/29 07:50:25;;;;;;;5.85;5.03;;;31.60;29.80;;;;;;4845818;29;89297;-90
2021/03/29 07:52:54;;;;;;;5.25;4.85;;;32.20;29.80;;;;;;4854390;29;86889;-88
2021/03/29 07:55:24;;;;;;;5.63;4.63;;;32.60;29.80;;;;;;4850897;29;87315;-88
2021/03/29 07:57:50;;;;;;;6.53;5.18;;;33.20;29.60;;;;;;4849633;29;87502;-88
2021/03/29 08:00:28;;;;;;;5.05;4.70;;;33.50;29.60;;;;;;4850875;29;87752;-88
2021/03/29 08:03:01;;;;;;;5.00;4.60;;;33.70;28.70;;;;;;4843812;29;86984;-88
2021/03/29 08:05:45;;;;;;;6.13;4.43;;;34.00;29.20;;;;;;4834045;29;87000;-88
2021/03/29 08:08:26;;;;;;;5.18;4.78;;;34.60;28.00;;;;;;4836666;29;85923;-88
2021/03/29 08:11:01;;;;;;;5.35;4.95;;;35.00;27.60;;;;;;4842478;29;89236;-88
2021/03/29 08:13:42;;;;;;;7.18;5.18;;;35.20;27.10;;;;;;4840590;29;86960;-89
2021/03/29 08:16:13;;;;;;;5.68;5.07;;;35.40;26.80;;;;;;4850096;29;87961;-88
2021/03/29 08:19:17;;;;;;;5.50;5.00;;;35.60;27.10;;;;;;4850785;29;87091;-88
2021/03/29 08:21:57;;;;;;;5.13;4.72;;;35.90;26.10;;;;;;4839420;29;89802;-88
2021/03/29 08:24:28;;;;;;;5.95;4.65;;;36.40;26.30;;;;;;4850449;29;87273;-88
2021/03/29 08:27:05;;;;;;;5.60;5.10;;;36.50;26.50;;;;;;4847262;29;86997;-88
2021/03/29 08:29:35;;;;;;;5.57;5.18;;;36.90;25.50;;;;;;4850628;29;87372;-89
2021/03/29 08:32:24;;;;;;;5.90;4.60;;;37.10;26.10;;;;;;4850729;29;86935;-88
2021/03/29 08:34:53;;;;;;;6.72;5.40;;;37.30;26.30;;;;;;4850160;29;86219;-91
2021/03/29 08:37:59;;;;;;;13.27;6.32;;;37.50;25.90;;;;;;4852004;29;87139;-88
2021/03/29 08:40:30;;;;;;;12.68;6.13;;;37.80;25.30;;;;;;4833371;29;88358;-88
2021/03/29 08:43:07;;;;;;;10.90;5.60;;;38.40;25.20;;;;;;4835359;29;88270;-88
2021/03/29 08:45:34;;;;;;;8.10;5.75;;;38.70;25.00;;;;;;4849921;29;86707;-89
2021/03/29 08:48:02;;;;;;;6.00;5.40;;;39.00;25.00;;;;;;4850246;29;87042;-88
2021/03/29 08:50:37;;;;;;;6.80;5.60;;;39.20;24.50;;;;;;4850208;29;86898;-89
2021/03/29 08:53:11;;;;;;;6.47;5.30;;;39.00;24.40;;;;;;4850498;29;88314;-89
2021/03/29 08:55:39;;;;;;;6.85;4.85;;;39.40;24.30;;;;;;4849823;29;86997;-88
2021/03/29 08:58:06;;;;;;;5.82;5.30;;;39.50;24.30;;;;;;4850007;29;86796;-89
2021/03/29 09:00:35;;;;;;;5.10;4.60;;;39.70;24.40;;;;;;4838245;29;86401;-89
2021/03/29 09:03:01;;;;;;;5.75;5.25;;;39.70;23.80;;;;;;4849909;29;86794;-89
2021/03/29 09:05:27;;;;;;;5.50;5.10;;;39.80;23.80;;;;;;4849043;29;87195;-89
2021/03/29 09:07:54;;;;;;;5.32;4.82;;;39.80;23.80;;;;;;4849476;29;87901;-90
2021/03/29 09:10:27;;;;;;;5.68;5.18;;;39.90;23.80;;;;;;4832391;29;91064;-89
2021/03/29 09:13:05;;;;;;;5.05;4.55;;;40.20;23.60;;;;;;4833788;29;86949;-88
2021/03/29 09:15:36;;;;;;;5.32;4.85;;;40.60;23.50;;;;;;4850813;29;87066;-88
2021/03/29 09:18:06;;;;;;;5.65;5.20;;;40.80;23.30;;;;;;4846796;29;87135;-89
2021/03/29 09:20:33;;;;;;;5.43;4.80;;;41.10;23.10;;;;;;4846995;29;88122;-89
2021/03/29 09:23:05;;;;;;;8.07;4.80;;;41.00;22.80;;;;;;4849491;29;88021;-88
2021/03/29 09:25:37;;;;;;;5.10;4.68;;;40.80;22.40;;;;;;4849904;29;86064;-89
2021/03/29 09:30:59;;;;;;;5.38;4.88;;;40.90;22.50;;;;;;4847057;29;87623;-89
2021/03/29 09:33:26;;;;;;;5.20;4.80;;;41.10;22.60;;;;;;4848633;29;87728;-89
2021/03/29 09:35:53;;;;;;;5.25;4.85;;;41.40;22.30;;;;;;4850507;29;87256;-90
2021/03/29 09:38:37;;;;;;;5.45;5.05;;;41.50;22.20;;;;;;4832755;29;87028;-88
2021/03/29 09:41:31;;;;;;;5.40;5.00;;;41.70;22.00;;;;;;4849435;29;87444;-89
2021/03/29 09:43:58;;;;;;;5.22;4.82;;;41.60;22.20;;;;;;4849262;29;87151;-87
2021/03/29 09:46:29;;;;;;;6.03;5.55;;;42.00;22.80;;;;;;4849560;29;86968;-87
2021/03/29 09:49:09;;;;;;;5.88;5.47;;;41.90;22.50;;;;;;4849617;29;86844;-87
2021/03/29 09:51:36;;;;;;;5.82;5.32;;;41.70;22.40;;;;;;4850128;29;86270;-87
2021/03/29 09:54:27;;;;;;;5.75;5.30;;;42.20;22.90;;;;;;4849843;29;87113;-88
2021/03/29 09:56:55;;;;;;;5.88;5.47;;;42.40;22.80;;;;;;4850228;29;86892;-88
2021/03/29 09:59:26;;;;;;;5.63;5.25;;;42.40;22.80;;;;;;4849477;29;87381;-87
2021/03/29 10:01:51;;;;;;;6.22;5.72;;;42.70;23.00;;;;;;4845379;29;89538;-88
2021/03/29 10:04:17;;;;;;;6.25;5.75;;;42.40;22.80;;;;;;4833700;29;90065;-87
2021/03/29 10:06:54;;;;;;;6.22;5.72;;;42.40;22.80;;;;;;4854350;29;86994;-87
2021/03/29 10:09:33;;;;;;;5.88;5.35;;;42.60;22.40;;;;;;4852456;29;87014;-89
2021/03/29 10:11:59;;;;;;;;;;;42.70;22.00;;;;;;4832615;29;88808;-88
2021/03/29 10:14:39;;;;;;;5.57;5.18;;;42.90;21.60;;;;;;4846492;29;88073;-87
2021/03/29 10:17:20;;;;;;;5.97;5.47;;;43.20;21.30;;;;;;4820383;29;86235;-89
2021/03/29 10:19:47;;;;;;;5.78;5.38;;;43.30;21.30;;;;;;4834419;29;87080;-90
2021/03/29 10:22:16;;;;;;;5.78;5.38;;;43.50;21.60;;;;;;4841616;29;87477;-93
2021/03/29 10:25:05;;;;;;;8.43;5.43;;;43.70;21.60;;;;;;4853643;29;87438;-90
2021/03/29 10:27:45;;;;;;;6.03;5.53;;;43.90;21.00;;;;;;4846958;29;86747;-89
2021/03/29 10:30:13;;;;;;;5.90;5.50;;;44.00;21.30;;;;;;4822964;29;86924;-92
2021/03/29 10:32:38;;;;;;;5.32;5.00;;;44.20;21.40;;;;;;4872031;28;87293;-91
2021/03/29 10:35:06;;;;;;;5.43;5.10;;;44.10;21.40;;;;;;4856643;29;88886;-90
2021/03/29 10:37:39;;;;;;;6.28;5.82;;;44.10;21.40;;;;;;4866915;28;86721;-90
2021/03/29 10:40:08;;;;;;;6.10;5.65;;;43.70;21.60;;;;;;4830936;29;86835;-90
2021/03/29 10:42:38;;;;;;;5.93;5.53;;;43.50;22.00;;;;;;4845580;29;88560;-92
2021/03/29 10:45:10;;;;;;;6.90;6.35;;;43.50;22.10;;;;;;4849507;29;87131;-92
2021/03/29 10:47:37;;;;;;;6.03;5.63;;;43.60;22.20;;;;;;4850050;29;87006;-90
2021/03/29 10:50:05;;;;;;;6.60;6.10;;;43.80;22.30;;;;;;4848748;29;88092;-89
2021/03/29 10:52:31;;;;;;;6.57;6.18;;;44.00;22.40;;;;;;4849339;29;87105;-90
2021/03/29 10:54:56;;;;;;;6.93;6.32;;;44.00;22.30;;;;;;4831841;29;89581;-89
2021/03/29 10:57:22;;;;;;;6.38;5.88;;;43.50;22.30;;;;;;4844125;29;86200;-89
2021/03/29 10:59:48;;;;;;;6.45;5.95;;;42.90;22.40;;;;;;4859777;29;86968;-91
2021/03/29 11:02:14;;;;;;;6.53;6.03;;;42.90;22.40;;;;;;4826006;29;90350;-91
2021/03/29 11:04:40;;;;;;;6.43;5.97;;;43.00;22.40;;;;;;4865331;29;87517;-92
2021/03/29 11:07:06;;;;;;;6.68;6.20;;;43.20;22.20;;;;;;4853850;29;87380;-92
2021/03/29 11:09:40;;;;;;;6.53;5.93;;;43.20;22.30;;;;;;4839117;29;86788;-92
2021/03/29 11:12:13;;;;;;;6.85;6.38;;;43.00;22.30;;;;;;4867221;29;88496;-90
2021/03/29 11:14:39;;;;;;;7.03;6.47;;;43.10;22.20;;;;;;4832607;29;87148;-90
2021/03/29 11:17:09;;;;;;;6.82;6.35;;;43.30;22.20;;;;;;4845190;29;86941;-90
2021/03/29 11:19:35;;;;;;;6.28;5.78;;;43.30;22.10;;;;;;4853997;29;86707;-90
2021/03/29 11:22:03;;;;;;;6.68;6.13;;;43.30;22.20;;;;;;4851013;29;86666;-91
2021/03/29 11:24:29;;;;;;;6.57;6.18;;;43.40;22.20;;;;;;4869894;29;88456;-92
2021/03/29 11:26:58;;;;;;;6.03;5.47;;;43.30;22.10;;;;;;4851058;29;86188;-91
2021/03/29 11:29:23;;;;;;;6.47;5.90;;;43.30;21.80;;;;;;4863607;29;86884;-91
2021/03/29 11:31:49;;;;;;;6.70;6.20;;;43.20;21.90;;;;;;4852405;29;86580;-91
2021/03/29 11:34:15;;;;;;;7.38;6.20;;;43.20;21.90;;;;;;4849706;29;89285;-91
2021/03/29 11:36:41;;;;;;;6.68;6.07;;;43.30;21.90;;;;;;4857902;29;86400;-93
2021/03/29 11:39:11;;;;;;;6.30;5.90;;;43.60;21.90;;;;;;4871558;28;87617;-91
2021/03/29 11:41:38;;;;;;;6.45;6.00;;;43.30;22.00;;;;;;4860055;29;87547;-91
2021/03/29 11:44:04;;;;;;;7.07;6.57;;;43.30;22.00;;;;;;4834273;29;90897;-91
2021/03/29 11:46:31;;;;;;;7.30;6.70;;;43.20;21.90;;;;;;4851760;29;86813;-92
2021/03/29 11:48:57;;;;;;;7.00;6.13;;;43.00;22.20;;;;;;4847384;29;86429;-93
2021/03/29 11:51:23;;;;;;;7.68;6.05;;;43.30;22.00;;;;;;4873606;28;87713;-93
2021/03/29 11:53:52;;;;;;;5.93;5.55;;;43.50;21.80;;;;;;4873883;28;86930;-92
2021/03/29 11:56:18;;;;;;;6.07;5.68;;;43.90;21.00;;;;;;4874205;28;85492;-92
2021/03/29 11:58:47;;;;;;;5.60;5.22;;;44.00;20.70;;;;;;4874994;28;86282;-94
2021/03/29 12:06:15;;;;;;;5.53;5.15;;;43.80;20.00;;;;;;4864805;29;86183;-92
2021/03/29 12:13:58;;;;;;;5.80;5.40;;;44.20;20.00;;;;;;4840027;29;87042;-91
2021/03/29 12:16:26;;;;;;;5.60;5.20;;;44.40;20.40;;;;;;4850113;29;87000;-92
2021/03/29 12:18:54;;;;;;;5.27;4.97;;;44.40;20.10;;;;;;4831916;29;87173;-91
2021/03/29 12:21:25;;;;;;;6.07;5.53;;;44.30;20.20;;;;;;4849498;29;88023;-91
2021/03/29 12:24:07;;;;;;;6.28;5.70;;;44.50;20.20;;;;;;4849133;29;87053;-91
2021/03/29 12:26:34;;;;;;;6.15;5.72;;;44.40;20.50;;;;;;4849547;29;87065;-91
2021/03/29 12:29:01;;;;;;;6.30;5.90;;;44.20;20.10;;;;;;4833146;29;87978;-91
2021/03/29 12:31:27;;;;;;;6.40;5.90;;;43.70;20.30;;;;;;4833855;29;92219;-91
2021/03/29 12:33:55;;;;;;;6.60;6.10;;;43.70;20.40;;;;;;4850135;29;87526;-91
2021/03/29 12:36:22;;;;;;;6.05;5.65;;;43.10;20.50;;;;;;4850242;29;86802;-91
2021/03/29 12:39:01;;;;;;;5.75;5.25;;;42.90;20.70;;;;;;4850598;29;87084;-91
2021/03/29 12:41:30;;;;;;;5.80;5.40;;;42.90;20.60;;;;;;4849189;29;88764;-91
2021/03/29 12:44:02;;;;;;;5.88;5.38;;;42.20;20.70;;;;;;4850334;29;88557;-92
2021/03/29 12:46:28;;;;;;;5.70;5.30;;;42.30;20.90;;;;;;4851039;29;86187;-91
2021/03/29 12:48:54;;;;;;;5.50;5.20;;;42.20;20.30;;;;;;4834734;29;86908;-91
2021/03/29 12:51:20;;;;;;;4.80;4.53;;;42.30;20.20;;;;;;4849543;29;88451;-91
2021/03/29 12:53:48;;;;;;;5.10;4.80;;;42.30;19.90;;;;;;4849479;29;88503;-91
2021/03/29 12:56:16;;;;;;;5.45;5.15;;;42.00;20.10;;;;;;4850143;29;86999;-91
2021/03/29 12:58:41;;;;;;;4.90;4.60;;;42.10;20.30;;;;;;4850222;29;87113;-91
2021/03/29 13:01:09;;;;;;;5.28;4.80;;;41.50;20.20;;;;;;4848913;29;87829;-91
2021/03/29 13:03:43;;;;;;;5.78;5.38;;;41.40;20.50;;;;;;4850399;29;88029;-90
2021/03/29 13:06:20;;;;;;;5.55;5.22;;;41.40;20.70;;;;;;4842889;29;87021;-91
2021/03/29 13:08:46;;;;;;;6.15;5.70;;;41.40;21.00;;;;;;4840587;29;86926;-90
2021/03/29 13:11:26;;;;;;;8.02;5.68;;;40.90;21.60;;;;;;4852532;29;87230;-91
2021/03/29 13:13:52;;;;;;;6.05;5.60;;;40.50;21.50;;;;;;4852039;29;87251;-91
2021/03/29 13:16:18;;;;;;;6.00;5.57;;;40.30;21.80;;;;;;4851060;29;86940;-91
2021/03/29 13:18:44;;;;;;;6.05;5.43;;;40.20;21.70;;;;;;4850539;29;87732;-90
2021/03/29 13:21:10;;;;;;;5.60;5.20;;;40.00;21.40;;;;;;4849869;29;88711;-91
2021/03/29 13:23:37;;;;;;;5.75;5.07;;;40.00;21.40;;;;;;4849731;29;87461;-91
2021/03/29 13:26:05;;;;;;;6.68;5.60;;;39.80;21.40;;;;;;4850316;29;87022;-92
2021/03/29 13:28:32;;;;;;;5.75;5.35;;;39.10;21.30;;;;;;4833884;29;87085;-91
2021/03/29 13:30:58;;;;;;;5.60;5.20;;;38.90;21.30;;;;;;4850779;29;87743;-91
2021/03/29 13:33:24;;;;;;;6.10;5.60;;;38.60;21.30;;;;;;4851288;29;87726;-91
2021/03/29 13:35:49;;;;;;;5.75;5.38;;;38.40;21.20;;;;;;4853018;29;85975;-91
2021/03/29 13:38:15;;;;;;;5.78;5.38;;;38.20;21.60;;;;;;4834870;29;86827;-91
2021/03/29 13:40:41;;;;;;;5.90;4.82;;;38.10;21.60;;;;;;4851225;29;88249;-91
2021/03/29 13:43:11;;;;;;;4.60;4.30;;;38.20;21.60;;;;;;4850736;29;88336;-90
2021/03/29 13:45:38;;;;;;;5.07;4.68;;;38.00;21.30;;;;;;4851149;29;86955;-90
2021/03/29 13:48:05;;;;;;;4.80;4.47;;;37.70;21.50;;;;;;4835097;29;86574;-91
2021/03/29 13:50:31;;;;;;;5.35;4.85;;;37.70;21.50;;;;;;4835841;29;90872;-91
2021/03/29 13:52:58;;;;;;;4.72;4.43;;;37.70;21.40;;;;;;4835101;29;91847;-90
2021/03/29 13:55:24;;;;;;;4.88;4.40;;;37.40;21.60;;;;;;4851914;29;86919;-90
2021/03/29 13:57:54;;;;;;;4.82;4.43;;;37.10;21.30;;;;;;4834609;29;86935;-90
2021/03/29 14:00:24;;;;;;;4.70;4.40;;;36.90;21.40;;;;;;4854336;29;86590;-91
2021/03/29 14:02:53;;;;;;;4.65;4.05;;;36.70;21.30;;;;;;4854567;29;86917;-91
2021/03/29 14:05:26;;;;;;;4.50;4.20;;;36.60;21.40;;;;;;4836807;29;86931;-90
2021/03/29 14:07:52;;;;;;;4.50;4.10;;;36.30;21.30;;;;;;4853746;29;87997;-89
2021/03/29 14:10:18;;;;;;;4.30;3.90;;;36.10;21.40;;;;;;4834936;29;89889;-90
2021/03/29 14:12:45;;;;;;;4.07;3.80;;;35.90;21.30;;;;;;4850439;29;88229;-90
2021/03/29 14:15:12;;;;;;;4.88;4.00;;;35.60;21.40;;;;;;4849979;29;86525;-90
2021/03/29 14:17:37;;;;;;;4.50;4.10;;;35.30;21.70;;;;;;4850269;29;86847;-90
2021/03/29 14:20:14;;;;;;;4.10;3.80;;;35.20;21.70;;;;;;4833297;29;91574;-90
2021/03/29 14:22:41;;;;;;;4.32;4.03;;;35.10;21.80;;;;;;4849834;29;87191;-90
2021/03/29 14:25:09;;;;;;;4.47;4.18;;;34.90;21.50;;;;;;4834021;29;86405;-89
2021/03/29 14:27:36;;;;;;;5.13;4.20;;;34.90;21.80;;;;;;4850888;29;87615;-89
2021/03/29 14:30:03;;;;;;;4.63;4.10;;;34.80;21.80;;;;;;4850373;29;88267;-89
2021/03/29 14:32:29;;;;;;;6.55;5.60;;;34.70;22.00;;;;;;4852059;29;88266;-90
2021/03/29 14:40:16;;;;;;;4.82;4.47;;;33.60;22.20;;;;;;4859846;29;86449;-89
2021/03/29 14:42:48;;;;;;;5.30;4.80;;;33.30;22.90;;;;;;4862618;29;87016;-89
2021/03/29 14:45:14;;;;;;;4.30;4.00;;;33.30;23.10;;;;;;4872249;28;86374;-90
2021/03/29 14:55:51;;;;;;;4.20;3.90;;;32.30;22.70;;;;;;5213648;23;87102;-89
2021/03/29 14:58:17;;;;;;;3.90;3.60;;;32.00;21.40;;;;;;4835462;29;87710;-89
2021/03/29 15:00:42;;;;;;;4.10;3.80;;;31.50;21.90;;;;;;4833452;29;91353;-90
2021/03/29 15:03:17;;;;;;;3.47;3.20;;;31.20;22.10;;;;;;4852280;29;87162;-90
2021/03/29 15:05:50;;;;;;;4.07;3.78;;;31.00;21.70;;;;;;4838527;29;86821;-89
2021/03/29 15:08:16;;;;;;;5.65;3.50;;;30.70;21.70;;;;;;4838135;29;87010;-91
2021/03/29 15:10:42;;;;;;;4.10;3.70;;;30.50;21.30;;;;;;4854276;29;87471;-90
2021/03/29 15:13:09;;;;;;;4.50;4.15;;;30.30;21.50;;;;;;4854944;29;87299;-87
2021/03/29 15:16:02;;;;;;;4.25;3.97;;;30.00;21.30;;;;;;4837873;29;86006;-87
2021/03/29 15:18:29;;;;;;;5.60;4.20;;;29.80;21.50;;;;;;4854045;29;87140;-87
2021/03/29 15:20:54;;;;;;;4.30;4.00;;;29.40;21.70;;;;;;4854831;29;87166;-90
2021/03/29 15:23:45;;;;;;;4.13;3.83;;;29.00;21.40;;;;;;4854930;29;87646;-90
2021/03/29 15:26:10;;;;;;;3.92;3.60;;;29.00;22.60;;;;;;4852709;29;87091;-89
2021/03/29 15:28:36;;;;;;;4.70;4.13;;;28.70;22.00;;;;;;4853751;29;86852;-89
2021/03/29 15:31:12;;;;;;;4.28;3.90;;;28.60;21.30;;;;;;4854037;29;88289;-90
2021/03/29 15:33:38;;;;;;;4.80;4.28;;;28.50;21.00;;;;;;4853044;29;87508;-89
2021/03/29 15:36:04;;;;;;;4.30;4.00;;;28.10;21.10;;;;;;4853921;29;86774;-90
2021/03/29 15:38:30;;;;;;;4.30;4.00;;;27.90;20.70;;;;;;4852859;29;86924;-90
2021/03/29 15:40:56;;;;;;;4.40;4.00;;;27.80;21.70;;;;;;4840619;29;90231;-89
2021/03/29 15:43:22;;;;;;;4.30;3.90;;;27.40;22.60;;;;;;4845935;29;87221;-90
2021/03/29 15:45:49;;;;;;;4.57;4.18;;;27.20;23.20;;;;;;4849806;29;87000;-88
2021/03/29 15:48:19;;;;;;;4.32;4.00;;;27.00;23.10;;;;;;4851816;29;88074;-89
2021/03/29 15:50:47;;;;;;;4.13;3.78;;;26.80;23.10;;;;;;4847472;29;89323;-89
2021/03/29 15:53:12;;;;;;;4.53;4.22;;;26.60;22.70;;;;;;4834554;29;87014;-89
2021/03/29 15:59:14;;;;;;;6.13;4.70;;;26.20;23.80;;;;;;4833108;29;86828;-89
2021/03/29 16:01:49;;;;;;;4.80;4.40;;;25.90;23.50;;;;;;4817316;29;87721;-89
2021/03/29 16:04:29;;;;;;;6.22;4.50;;;25.70;23.50;;;;;;4817744;29;89234;-89
2021/03/29 16:06:55;;;;;;;4.82;4.32;;;25.40;23.20;;;;;;4835635;29;86002;-89
2021/03/29 16:09:55;;;;;;;6.07;4.57;;;25.10;23.40;;;;;;4834633;29;86867;-89
2021/03/29 16:12:21;;;;;;;4.57;4.18;;;24.90;23.50;;;;;;4817414;29;87785;-89
2021/03/29 16:15:09;;;;;;;5.43;4.93;;;24.60;23.20;;;;;;4851708;29;87811;-89
2021/03/29 16:17:37;;;;;;;5.53;5.03;;;24.50;23.10;;;;;;4853866;29;86697;-89
2021/03/29 16:20:07;;;;;;;6.25;4.45;;;24.20;23.20;;;;;;4852142;29;87138;-90
2021/03/29 16:22:33;;;;;;;4.73;4.43;;;24.00;23.10;;;;;;4853209;29;89548;-89
2021/03/29 16:25:00;;;;;;;4.18;3.78;;;23.80;23.40;;;;;;4836213;29;89289;-89
2021/03/29 16:27:29;;;;;;;4.15;3.85;;;23.60;22.80;;;;;;4853546;29;86950;-89
2021/03/29 16:29:55;;;;;;;6.85;4.13;;;23.40;23.20;;;;;;4852451;29;86779;-88
2021/03/29 16:32:21;;;;;;;3.80;3.50;;;23.10;23.20;;;;;;4836673;29;89319;-88
2021/03/29 16:34:51;;;;;;;4.18;3.85;;;22.90;22.70;;;;;;4852067;29;86743;-88
2021/03/29 16:38:05;;;;;;;4.32;3.70;;;22.70;22.90;;;;;;4853473;29;86923;-88